Flight Track Log - Related Links

Times and Time Zones

All times are in EDT time to prevent confusion due to time zone crossing. See the UCA5010 flight status page for this flight to view local times or setup timezone preferences in your user account.

Time Position Orientation Groundspeed Altitude Reporting Facility
EDT Latitude Longitude Course Direction KTS MPH feet Rate Location/Type
Sun 06:32:18 AM 38.1667 -78.4333 40° Northeast 133 153 2,100  Level Potomac TRACON
Sun 06:33:18 AM 38.2000 -78.4000 38° Northeast 153 176 3,700 1,684 Climbing Potomac TRACON
Sun 06:34:12 AM 38.2333 -78.3667 38° Northeast 162 186 5,300 1,500 Climbing Potomac TRACON
Sun 06:35:06 AM 38.2667 -78.3333 38° Northeast 177 204 6,400 895 Climbing Potomac TRACON
Sun 06:36:06 AM 38.3000 -78.2833 50° Northeast 207 238 7,000 300 Climbing Potomac TRACON
Sun 06:37:00 AM 38.3949 -78.1435 40° Northeast  Level FlightAware Approximate
Sun 06:37:06 AM 38.3500 -78.2167 46° Northeast 245 282 7,000  Level Potomac TRACON
Sun 06:38:06 AM 38.4000 -78.1667 38° Northeast 248 285 7,000  Level Potomac TRACON
Sun 06:39:00 AM 38.4500 -78.1000 46° Northeast 248 285 7,000 -50 Level Potomac TRACON
Sun 06:40:06 AM 38.5000 -78.0333 46° Northeast 246 283 6,900 -524 Descending Potomac TRACON
Sun 06:41:06 AM 38.5167 -77.9500 76° East 263 303 5,900 -947 Descending Potomac TRACON
Sun 06:42:00 AM 38.5500 -77.8833 57° Northeast 257 296 5,100 -474 Descending Potomac TRACON
Sun 06:43:00 AM 38.5833 -77.8000 63° Northeast 243 280 5,000 -53 Descending Potomac TRACON
Sun 06:43:54 AM 38.6167 -77.7500 50° Northeast 235 270 5,000  Level Potomac TRACON
Sun 06:44:54 AM 38.6500 -77.6833 57° Northeast 227 261 5,000  Level Potomac TRACON
Sun 06:45:54 AM 38.6500 -77.6000 90° East 219 252 5,000  Level Potomac TRACON
Sun 06:46:54 AM 38.6667 -77.5167 76° East 216 249 5,000 -300 Level Potomac TRACON
Sun 06:47:54 AM 38.7000 -77.4667 49° Northeast 207 238 4,400 -450 Descending Potomac TRACON
Sun 06:48:54 AM 38.7500 -77.4667 360° North 165 190 4,100 -600 Descending Potomac TRACON
Sun 06:49:54 AM 38.8000 -77.4667 360° North 154 177 3,200 -850 Descending Potomac TRACON
Sun 06:50:54 AM 38.8333 -77.4667 360° North 136 157 2,400 -750 Descending Potomac TRACON
Sun 06:51:54 AM 38.8667 -77.4667 360° North 118 136 1,700 -619 Descending Potomac TRACON
Sun 06:53:00 AM 38.9000 -77.4667 360° North 91 105 1,100 -550 Descending Potomac TRACON
Sun 06:53:54 AM 38.9167 -77.4667 360° North 99 114 600 -556 Descending Potomac TRACON
Sun 06:55:00 AM 38.9333 -77.4500 34° Northeast  Level FlightAware Approximate
Sun 07:02:00 AM 38.9474 -77.4599 34° Northeast  Level Estimated

Login

Don't have an account? Register now (free) for customized features, flight alerts, and more!